Time;durP1;ratioP1;P1;durP2;ratioP2;P2;SDS_P1;SDS_P2;PMS_P1;PMS_P2;Temp;Humidity;BMP_temperature;BMP_pressure;BME280_temperature;BME280_humidity;BME280_pressure;Samples;Min_cycle;Max_cycle;Signal;HPM_P1;HPM_P2
2023/10/13 00:04:42;;;;;;;5.33;4.80;;;20.80;37.90;;;;;;10402928;28;20240;-76
2023/10/13 00:09:45;;;;;;;5.97;5.07;;;20.70;37.10;;;;;;10399712;28;20704;-76
2023/10/13 00:14:50;;;;;;;5.40;4.90;;;20.70;37.10;;;;;;10396208;28;20227;-77
2023/10/13 00:19:54;;;;;;;6.47;5.13;;;20.60;37.00;;;;;;10407221;28;20240;-77
2023/10/13 00:24:59;;;;;;;6.30;5.67;;;20.60;37.00;;;;;;10392270;28;20234;-77
2023/10/13 00:30:17;;;;;;;6.70;5.53;;;20.50;36.90;;;;;;10344964;28;20231;-77
2023/10/13 00:35:26;;;;;;;6.47;5.57;;;20.50;37.20;;;;;;10355470;28;20238;-77
2023/10/13 00:40:51;;;;;;;6.00;5.40;;;20.40;36.90;;;;;;10361395;28;21307;-77
2023/10/13 00:45:57;;;;;;;6.10;5.50;;;20.30;37.00;;;;;;10357513;28;20226;-77
2023/10/13 00:51:06;;;;;;;5.90;5.27;;;20.30;37.60;;;;;;10359233;28;20237;-77
2023/10/13 00:56:19;;;;;;;7.27;5.57;;;20.30;37.60;;;;;;10392150;28;20669;-77
2023/10/13 01:01:29;;;;;;;6.97;5.60;;;20.20;37.30;;;;;;10399486;28;20361;-77
2023/10/13 01:06:37;;;;;;;6.77;5.53;;;20.10;37.60;;;;;;10393087;28;20234;-76
2023/10/13 01:11:46;;;;;;;6.10;5.50;;;19.90;37.50;;;;;;10393896;28;20802;-76
2023/10/13 01:16:52;;;;;;;6.97;5.90;;;19.80;38.40;;;;;;10401544;28;20275;-75
2023/10/13 01:22:02;;;;;;;6.83;5.60;;;19.70;38.30;;;;;;10403854;28;20256;-76
2023/10/13 01:27:17;;;;;;;6.57;5.03;;;19.70;38.20;;;;;;10388726;28;20236;-77
2023/10/13 01:32:22;;;;;;;5.77;5.03;;;19.70;38.50;;;;;;10402288;28;20226;-76
2023/10/13 01:37:25;;;;;;;6.17;4.60;;;19.70;38.10;;;;;;10395341;28;20221;-76
2023/10/13 01:42:30;;;;;;;5.37;4.87;;;19.70;37.90;;;;;;10385684;28;20912;-76
2023/10/13 01:47:33;;;;;;;5.83;5.17;;;19.60;38.30;;;;;;10392372;28;20696;-76
2023/10/13 01:52:37;;;;;;;5.77;5.17;;;19.60;38.00;;;;;;10395483;28;20229;-76
2023/10/13 01:57:46;;;;;;;6.90;5.47;;;19.60;37.90;;;;;;10390116;28;20716;-76
2023/10/13 02:02:50;;;;;;;6.67;5.50;;;19.40;38.90;;;;;;10394279;28;20229;-76
2023/10/13 02:07:54;;;;;;;6.33;5.00;;;19.30;38.00;;;;;;10396971;28;20222;-76
2023/10/13 02:12:59;;;;;;;5.23;4.73;;;19.10;38.10;;;;;;10395184;28;20726;-77
2023/10/13 02:18:02;;;;;;;6.17;5.10;;;19.00;38.60;;;;;;10398570;28;20778;-76
2023/10/13 02:23:10;;;;;;;6.10;4.43;;;19.00;38.40;;;;;;10398990;28;20222;-76
2023/10/13 02:28:15;;;;;;;5.67;4.73;;;19.00;38.30;;;;;;10391649;28;20226;-76
2023/10/13 02:33:21;;;;;;;6.37;5.10;;;19.10;38.70;;;;;;10391894;28;20627;-76
2023/10/13 02:38:33;;;;;;;4.87;4.47;;;19.00;38.30;;;;;;10401454;28;20726;-77
2023/10/13 02:43:38;;;;;;;5.50;4.83;;;19.00;38.30;;;;;;10360296;28;20249;-77
2023/10/13 02:48:42;;;;;;;5.90;5.10;;;19.00;38.50;;;;;;10346601;28;20266;-77
2023/10/13 02:53:48;;;;;;;5.13;4.63;;;18.90;38.10;;;;;;10354997;28;20228;-78
2023/10/13 02:58:56;;;;;;;4.87;4.37;;;18.80;38.30;;;;;;10353320;28;20249;-77
2023/10/13 03:03:59;;;;;;;7.27;5.07;;;18.70;38.90;;;;;;10366095;28;20222;-77
2023/10/13 03:09:14;;;;;;;6.33;4.90;;;18.70;38.50;;;;;;10380800;28;20233;-77
2023/10/13 03:14:28;;;;;;;6.17;4.60;;;18.60;38.50;;;;;;10405904;28;20221;-77
2023/10/13 03:19:34;;;;;;;10.03;6.10;;;18.60;38.70;;;;;;10401663;28;20257;-77
2023/10/13 03:24:41;;;;;;;5.77;5.20;;;18.50;39.00;;;;;;10402682;28;20704;-77
2023/10/13 03:29:47;;;;;;;7.63;5.57;;;18.40;38.40;;;;;;10393843;28;20303;-76
2023/10/13 03:35:10;;;;;;;7.40;4.97;;;18.30;38.80;;;;;;10399073;28;20912;-77
2023/10/13 03:45:38;;;;;;;6.60;5.07;;;18.30;38.60;;;;;;10398415;28;20236;-75
2023/10/13 03:50:48;;;;;;;5.60;4.93;;;18.20;38.60;;;;;;10399171;28;20248;-77
2023/10/13 03:56:07;;;;;;;6.47;4.87;;;18.10;38.40;;;;;;10401022;28;20228;-75
2023/10/13 04:01:15;;;;;;;6.13;4.63;;;17.90;38.30;;;;;;10352672;28;20230;-76
2023/10/13 04:06:19;;;;;;;4.70;4.30;;;17.80;38.80;;;;;;10365914;28;20643;-76
2023/10/13 04:16:52;;;;;;;5.70;4.90;;;17.70;38.80;;;;;;10368463;28;21195;-76
2023/10/13 04:21:59;;;;;;;6.40;4.90;;;17.70;39.00;;;;;;10361519;28;20744;-76
2023/10/13 04:27:39;;;;;;;4.90;4.50;;;17.70;38.80;;;;;;10395610;28;20262;-76
2023/10/13 04:33:05;;;;;;;6.17;4.37;;;17.60;38.60;;;;;;10392156;28;20226;-76
2023/10/13 04:38:19;;;;;;;3.93;3.50;;;17.50;38.90;;;;;;10391348;28;20375;-76
2023/10/13 04:43:36;;;;;;;4.53;4.07;;;17.50;38.70;;;;;;10391465;28;20253;-76
2023/10/13 04:48:47;;;;;;;6.30;4.50;;;17.50;38.80;;;;;;10395573;28;20233;-75
2023/10/13 04:54:04;;;;;;;4.87;4.40;;;17.50;39.00;;;;;;10394950;28;20226;-77
2023/10/13 05:04:57;;;;;;;4.40;4.00;;;17.50;38.60;;;;;;10341527;28;20241;-76
2023/10/13 05:47:50;;;;;;;4.83;3.60;;;17.30;38.30;;;;;;10335126;28;20230;-75
2023/10/13 06:30:26;;;;;;;6.67;4.90;;;16.80;39.40;;;;;;10355803;28;20241;-74
2023/10/13 06:35:31;;;;;;;5.83;4.00;;;16.80;39.10;;;;;;10370917;28;20236;-74
2023/10/13 06:40:36;;;;;;;5.33;4.73;;;16.90;39.30;;;;;;10394370;28;20232;-75
2023/10/13 06:45:40;;;;;;;6.47;4.87;;;17.00;39.80;;;;;;10392749;28;20236;-74
2023/10/13 06:50:49;;;;;;;5.93;5.07;;;17.00;39.50;;;;;;10363922;28;20226;-75
2023/10/13 06:55:58;;;;;;;5.50;4.50;;;17.10;40.10;;;;;;10369313;28;20523;-74
2023/10/13 07:01:07;;;;;;;5.37;4.03;;;17.20;39.80;;;;;;10382043;28;20253;-74
2023/10/13 07:06:18;;;;;;;6.30;4.47;;;17.20;39.50;;;;;;10381918;28;20228;-74
2023/10/13 07:11:34;;;;;;;6.80;4.47;;;17.30;39.50;;;;;;10388079;28;20230;-74
2023/10/13 07:16:46;;;;;;;7.63;4.67;;;17.40;39.90;;;;;;10385123;28;20225;-75
2023/10/13 07:21:58;;;;;;;9.43;4.70;;;17.50;39.70;;;;;;10393817;28;20233;-76
2023/10/13 07:27:05;;;;;;;5.43;3.97;;;17.60;39.80;;;;;;10391365;28;20393;-76
2023/10/13 07:32:12;;;;;;;8.33;4.70;;;17.70;40.10;;;;;;10354415;28;20222;-75
2023/10/13 07:37:16;;;;;;;6.43;4.00;;;17.80;40.20;;;;;;10348725;28;20227;-76
2023/10/13 07:42:21;;;;;;;7.43;4.20;;;18.00;40.30;;;;;;10356509;28;20280;-76
2023/10/13 07:47:27;;;;;;;6.37;4.20;;;18.30;40.50;;;;;;10359765;28;20311;-75
2023/10/13 07:52:40;;;;;;;4.57;3.40;;;18.50;40.50;;;;;;10365596;28;20254;-76
2023/10/13 07:57:54;;;;;;;6.87;3.30;;;18.80;39.80;;;;;;10362389;28;20268;-74
2023/10/13 08:03:09;;;;;;;5.27;2.53;;;19.10;39.30;;;;;;10372267;28;20226;-74
2023/10/13 08:08:15;;;;;;;3.50;2.77;;;19.50;39.20;;;;;;10361747;28;20273;-74
2023/10/13 08:13:20;;;;;;;5.23;2.90;;;19.80;38.80;;;;;;10367094;28;20247;-74
2023/10/13 08:18:30;;;;;;;3.57;2.93;;;20.20;38.20;;;;;;10368725;28;20242;-74
2023/10/13 08:28:55;;;;;;;6.13;2.67;;;20.80;37.30;;;;;;10349607;28;20720;-74
2023/10/13 08:34:06;;;;;;;4.43;2.90;;;21.10;37.40;;;;;;10351784;28;20230;-74
2023/10/13 08:39:57;;;;;;;3.90;2.80;;;21.40;37.00;;;;;;10364321;28;20231;-74
2023/10/13 08:44:51;;;;;;;7.13;2.90;;;21.60;36.60;;;;;;10364054;28;20226;-74
2023/10/13 08:50:10;;;;;;;8.43;2.90;;;22.00;35.00;;;;;;10383406;28;20232;-74
2023/10/13 09:06:06;;;;;;;4.43;2.30;;;22.80;34.30;;;;;;10392534;28;20329;-74
2023/10/13 09:11:12;;;;;;;5.43;2.80;;;23.00;34.90;;;;;;10397053;28;20323;-74
2023/10/13 09:21:54;;;;;;;3.50;2.90;;;23.60;33.60;;;;;;10394352;28;20264;-74
2023/10/13 09:27:01;;;;;;;8.20;2.60;;;23.80;33.80;;;;;;10381408;28;20238;-74
2023/10/13 09:32:11;;;;;;;4.17;2.43;;;24.10;33.30;;;;;;10356916;28;20226;-74
2023/10/13 09:37:20;;;;;;;5.27;2.77;;;24.30;32.40;;;;;;10348056;28;20231;-74
2023/10/13 09:42:26;;;;;;;4.23;2.60;;;24.60;32.30;;;;;;10347373;28;20226;-74
2023/10/13 09:47:36;;;;;;;3.83;2.57;;;24.80;31.90;;;;;;10354233;28;20226;-74
2023/10/13 09:52:43;;;;;;;5.20;2.70;;;25.10;30.60;;;;;;10359001;28;20229;-74
2023/10/13 09:57:59;;;;;;;2.80;2.20;;;25.30;30.40;;;;;;10375888;28;21393;-74
2023/10/13 10:03:14;;;;;;;4.10;2.50;;;25.60;29.00;;;;;;10362721;28;20252;-74
2023/10/13 10:08:31;;;;;;;3.63;2.50;;;25.80;28.80;;;;;;10389357;28;20321;-74
2023/10/13 10:13:40;;;;;;;4.53;2.10;;;26.10;27.20;;;;;;10381412;28;20225;-77
2023/10/13 10:18:44;;;;;;;5.53;2.47;;;26.30;28.50;;;;;;10382783;28;20329;-77
2023/10/13 10:23:53;;;;;;;3.87;2.20;;;26.50;28.50;;;;;;10384313;28;20331;-77
2023/10/13 10:28:57;;;;;;;4.33;2.23;;;26.80;26.90;;;;;;10386013;28;20251;-77
2023/10/13 10:34:12;;;;;;;3.53;1.90;;;27.00;28.20;;;;;;10385685;28;20580;-77
2023/10/13 10:39:19;;;;;;;2.70;2.20;;;27.20;26.60;;;;;;10342232;28;20280;-77
2023/10/13 10:44:33;;;;;;;6.13;2.13;;;27.40;27.70;;;;;;10347945;28;20253;-76
2023/10/13 10:49:40;;;;;;;3.33;2.13;;;27.60;27.00;;;;;;10348258;28;20311;-75
2023/10/13 10:54:51;;;;;;;3.67;1.97;;;27.80;25.10;;;;;;10335832;28;20287;-77
2023/10/13 11:00:10;;;;;;;5.60;2.23;;;28.00;25.90;;;;;;10346537;28;20230;-77
2023/10/13 11:05:19;;;;;;;4.33;1.90;;;28.20;25.50;;;;;;10350461;28;20814;-77
2023/10/13 11:10:29;;;;;;;4.30;2.00;;;28.30;24.40;;;;;;10343639;28;20233;-75
2023/10/13 11:15:44;;;;;;;4.17;2.10;;;28.50;24.70;;;;;;10342469;28;20244;-75
2023/10/13 11:20:53;;;;;;;4.67;2.40;;;28.60;22.10;;;;;;10351671;28;20233;-75
2023/10/13 11:26:00;;;;;;;6.03;2.57;;;28.70;22.80;;;;;;10350846;28;20234;-75
2023/10/13 11:31:10;;;;;;;4.27;2.00;;;28.80;22.30;;;;;;10349386;28;20229;-77
2023/10/13 11:36:17;;;;;;;4.13;2.30;;;28.90;23.60;;;;;;10353199;28;20232;-74
2023/10/13 11:41:22;;;;;;;4.13;2.30;;;29.00;22.40;;;;;;10346380;28;21144;-75
2023/10/13 11:51:49;;;;;;;3.53;2.27;;;29.10;22.70;;;;;;10358567;28;20242;-75
2023/10/13 11:56:53;;;;;;;4.90;2.10;;;29.20;21.50;;;;;;10358212;28;20280;-75
2023/10/13 12:07:19;;;;;;;2.73;2.10;;;29.30;22.20;;;;;;10385901;28;20241;-75
2023/10/13 12:12:23;;;;;;;5.33;2.40;;;29.30;20.80;;;;;;10360307;28;20230;-77
2023/10/13 12:17:31;;;;;;;4.10;2.57;;;29.40;21.60;;;;;;10356934;28;20237;-77
2023/10/13 12:22:38;;;;;;;4.33;2.40;;;29.40;20.60;;;;;;10359722;28;20226;-76
2023/10/13 12:27:48;;;;;;;4.67;2.73;;;29.40;20.60;;;;;;10350556;28;20234;-76
2023/10/13 12:33:06;;;;;;;3.63;2.47;;;29.40;20.80;;;;;;10352214;28;20281;-77
2023/10/13 12:38:26;;;;;;;3.60;2.23;;;29.40;20.80;;;;;;10352234;28;20619;-74
2023/10/13 12:49:15;;;;;;;3.90;2.50;;;29.50;20.20;;;;;;10315298;28;20236;-74
2023/10/13 12:54:27;;;;;;;3.97;2.20;;;29.50;20.50;;;;;;10382687;28;20221;-74
2023/10/13 12:59:30;;;;;;;5.73;2.40;;;29.50;19.50;;;;;;10389570;28;20842;-74
2023/10/13 13:04:36;;;;;;;5.33;2.40;;;29.60;20.20;;;;;;10356013;28;20317;-75
2023/10/13 13:09:41;;;;;;;5.37;2.30;;;29.60;20.50;;;;;;10366039;28;20320;-75
2023/10/13 13:14:46;;;;;;;5.57;2.60;;;29.60;19.60;;;;;;10347126;28;20238;-75
2023/10/13 13:19:49;;;;;;;3.27;2.20;;;29.70;19.90;;;;;;10392504;28;21107;-75
2023/10/13 13:24:54;;;;;;;3.93;2.30;;;29.70;19.40;;;;;;10390551;28;20618;-75
2023/10/13 13:29:58;;;;;;;3.43;2.13;;;29.70;18.10;;;;;;10383616;28;20736;-75
2023/10/13 13:35:05;;;;;;;7.20;2.53;;;29.70;18.90;;;;;;10354000;28;20234;-75
2023/10/13 13:40:21;;;;;;;4.27;2.43;;;29.80;18.70;;;;;;10349389;28;20227;-75
2023/10/13 13:45:28;;;;;;;5.23;2.30;;;29.80;17.90;;;;;;10384128;28;20342;-75
2023/10/13 13:50:38;;;;;;;4.00;2.20;;;29.90;18.30;;;;;;10391446;28;20313;-75
2023/10/13 13:55:42;;;;;;;4.20;2.40;;;29.90;18.30;;;;;;10379782;28;20785;-75
2023/10/13 14:00:48;;;;;;;4.83;2.40;;;29.90;17.50;;;;;;10387932;28;20269;-76
2023/10/13 14:05:52;;;;;;;3.60;2.30;;;29.90;17.90;;;;;;10396763;28;20234;-76
2023/10/13 14:11:21;;;;;;;4.30;2.40;;;30.00;18.00;;;;;;10387473;28;20233;-72
2023/10/13 14:16:25;;;;;;;3.20;2.20;;;30.00;17.30;;;;;;10393388;28;20247;-73
2023/10/13 14:21:28;;;;;;;5.10;2.60;;;30.00;17.90;;;;;;10396304;28;20236;-72
2023/10/13 14:26:35;;;;;;;2.57;1.90;;;30.00;17.60;;;;;;10392232;28;20257;-73
2023/10/13 14:31:39;;;;;;;2.10;1.90;;;30.00;17.10;;;;;;10355161;28;20238;-73
2023/10/13 14:36:48;;;;;;;5.90;2.60;;;29.90;17.00;;;;;;10342694;28;20234;-73
2023/10/13 14:41:52;;;;;;;3.23;2.47;;;29.90;16.90;;;;;;10351090;28;20728;-73
2023/10/13 14:46:55;;;;;;;3.93;2.37;;;29.90;16.50;;;;;;10355669;28;20226;-74
2023/10/13 14:51:59;;;;;;;3.30;2.50;;;29.90;17.00;;;;;;10345279;28;20242;-74
2023/10/13 14:57:04;;;;;;;3.47;2.23;;;29.80;16.80;;;;;;10346990;28;20723;-74
2023/10/13 15:02:08;;;;;;;6.07;2.47;;;29.80;16.40;;;;;;10355601;28;20238;-73
2023/10/13 15:07:11;;;;;;;5.70;2.60;;;29.80;16.60;;;;;;10356715;28;20330;-72
2023/10/13 15:12:15;;;;;;;10.13;2.50;;;29.70;16.60;;;;;;10364899;28;20250;-74
2023/10/13 15:17:28;;;;;;;3.57;2.30;;;29.60;15.90;;;;;;10360045;28;20226;-74
2023/10/13 15:22:34;;;;;;;4.70;2.50;;;29.50;16.50;;;;;;10359704;28;20230;-74
2023/10/13 15:27:42;;;;;;;2.47;2.27;;;29.40;16.50;;;;;;10373734;28;20751;-74
2023/10/13 15:32:45;;;;;;;3.47;2.20;;;29.40;16.40;;;;;;10359086;28;20230;-74
2023/10/13 15:37:51;;;;;;;3.47;2.17;;;29.30;16.80;;;;;;10358154;28;20229;-75
2023/10/13 15:42:59;;;;;;;3.57;2.30;;;29.30;17.30;;;;;;10356599;28;20292;-75
2023/10/13 15:48:04;;;;;;;18.03;4.17;;;29.30;17.60;;;;;;10356346;28;20225;-75
2023/10/13 15:53:20;;;;;;;6.73;3.30;;;29.20;17.70;;;;;;10348472;28;23182;-75
2023/10/13 15:58:25;;;;;;;8.23;3.30;;;29.10;17.90;;;;;;10346692;28;20317;-77
2023/10/13 16:03:29;;;;;;;5.67;2.97;;;28.90;18.00;;;;;;10353146;28;20242;-77
2023/10/13 16:08:32;;;;;;;6.23;3.13;;;28.80;18.50;;;;;;10354234;28;20311;-77
2023/10/13 16:13:37;;;;;;;5.10;3.07;;;28.70;18.70;;;;;;10367280;28;20218;-75
2023/10/13 16:18:43;;;;;;;4.87;3.43;;;28.50;18.90;;;;;;10354568;28;20237;-75
2023/10/13 16:23:49;;;;;;;13.30;7.17;;;28.30;19.20;;;;;;10353514;28;20259;-73
2023/10/13 16:28:57;;;;;;;9.57;4.60;;;28.20;19.50;;;;;;10359368;28;20317;-73
2023/10/13 16:34:01;;;;;;;7.13;3.37;;;28.00;19.70;;;;;;10379882;28;20226;-73
2023/10/13 16:39:05;;;;;;;7.03;3.90;;;27.80;20.00;;;;;;10381588;28;20313;-74
2023/10/13 16:44:11;;;;;;;12.10;8.60;;;27.60;19.90;;;;;;10374005;28;20250;-74
2023/10/13 16:49:15;;;;;;;9.50;4.60;;;27.50;19.80;;;;;;10375549;28;20233;-77
2023/10/13 16:54:21;;;;;;;6.73;3.97;;;27.20;19.70;;;;;;10381569;28;20226;-77
2023/10/13 16:59:26;;;;;;;6.33;3.50;;;27.00;19.60;;;;;;10343825;28;21086;-78
2023/10/13 17:04:30;;;;;;;6.13;3.37;;;26.70;20.10;;;;;;10365946;28;20238;-74
2023/10/13 17:09:33;;;;;;;4.57;2.90;;;26.50;20.10;;;;;;10389387;28;20237;-74
2023/10/13 17:14:40;;;;;;;4.93;2.80;;;26.30;20.30;;;;;;10357046;28;20222;-74
2023/10/13 17:19:49;;;;;;;7.40;3.10;;;26.20;20.80;;;;;;10338475;28;20234;-74
2023/10/13 17:24:53;;;;;;;3.80;2.80;;;26.00;20.70;;;;;;10354005;28;20226;-75
2023/10/13 17:29:58;;;;;;;4.80;3.30;;;25.80;21.00;;;;;;10353014;28;20230;-75
2023/10/13 17:35:02;;;;;;;7.00;3.77;;;25.60;21.20;;;;;;10353140;28;20232;-75
2023/10/13 17:40:07;;;;;;;10.90;4.10;;;25.50;21.30;;;;;;10390577;28;20222;-76
2023/10/13 17:45:13;;;;;;;10.83;3.57;;;25.30;21.30;;;;;;10392407;28;20316;-76
2023/10/13 17:50:17;;;;;;;13.23;5.27;;;24.90;21.70;;;;;;10367736;28;20286;-75
2023/10/13 17:55:20;;;;;;;11.97;6.63;;;24.60;21.60;;;;;;10352200;28;20234;-76
2023/10/13 18:00:25;;;;;;;13.73;7.00;;;24.30;22.00;;;;;;10344017;28;20234;-75
2023/10/13 18:05:28;;;;;;;12.83;6.77;;;24.10;22.60;;;;;;10342393;28;20235;-76
2023/10/13 18:10:31;;;;;;;12.07;6.40;;;24.00;22.40;;;;;;10341252;28;20883;-76
2023/10/13 18:15:36;;;;;;;13.90;6.17;;;23.80;22.30;;;;;;10344917;28;20313;-76
2023/10/13 18:20:39;;;;;;;12.30;5.00;;;23.60;22.80;;;;;;10347837;28;20234;-75
2023/10/13 18:25:43;;;;;;;7.83;5.20;;;23.40;22.60;;;;;;10353253;28;20236;-76
2023/10/13 18:30:57;;;;;;;10.47;5.27;;;23.20;23.00;;;;;;10334919;28;20571;-78
2023/10/13 18:36:12;;;;;;;11.63;5.97;;;23.00;23.50;;;;;;10352680;28;20920;-78
2023/10/13 18:41:18;;;;;;;9.23;5.13;;;22.80;23.80;;;;;;10380033;28;20213;-78
2023/10/13 18:46:25;;;;;;;9.57;4.73;;;22.60;23.40;;;;;;10378821;28;20240;-77
2023/10/13 18:51:32;;;;;;;9.53;4.90;;;22.40;23.90;;;;;;10381521;28;20242;-78
2023/10/13 18:56:36;;;;;;;9.20;4.17;;;22.00;23.80;;;;;;10386794;28;20571;-78
2023/10/13 19:01:41;;;;;;;10.20;4.63;;;21.70;24.10;;;;;;10381230;28;20765;-75
2023/10/13 19:06:45;;;;;;;8.30;4.20;;;21.40;24.60;;;;;;10378350;28;20233;-75
2023/10/13 19:11:48;;;;;;;8.10;3.80;;;21.20;24.60;;;;;;10373997;28;20237;-75
2023/10/13 19:16:57;;;;;;;10.67;4.33;;;21.00;24.80;;;;;;10385891;28;20244;-75
2023/10/13 19:22:01;;;;;;;7.73;4.30;;;20.90;25.10;;;;;;10380871;28;20225;-75
2023/10/13 19:27:05;;;;;;;8.03;4.33;;;20.80;25.00;;;;;;10379902;28;20233;-76
2023/10/13 19:32:10;;;;;;;10.00;4.23;;;20.80;25.10;;;;;;10382120;28;20226;-75
2023/10/13 19:37:13;;;;;;;10.20;4.00;;;20.90;25.60;;;;;;10379384;28;20217;-75
2023/10/13 19:42:20;;;;;;;9.30;3.77;;;20.80;25.30;;;;;;10377061;28;20249;-76
2023/10/13 19:47:26;;;;;;;6.53;4.03;;;20.80;25.50;;;;;;10387071;28;20249;-76
2023/10/13 19:52:30;;;;;;;9.43;4.00;;;20.80;25.90;;;;;;10388921;28;20316;-76
2023/10/13 19:57:34;;;;;;;7.53;4.23;;;20.70;25.30;;;;;;10384029;28;20313;-76
2023/10/13 20:02:42;;;;;;;6.70;4.13;;;20.50;25.60;;;;;;10358128;28;20759;-76
2023/10/13 20:07:45;;;;;;;8.23;4.00;;;20.20;25.50;;;;;;10343947;28;20256;-77
2023/10/13 20:12:48;;;;;;;7.20;4.80;;;20.10;25.40;;;;;;10354498;28;20721;-76
2023/10/13 20:17:53;;;;;;;12.07;4.80;;;20.00;25.50;;;;;;10357087;28;20238;-76
2023/10/13 20:22:56;;;;;;;8.57;4.53;;;19.90;26.30;;;;;;10362195;28;20236;-76
2023/10/13 20:28:00;;;;;;;6.87;4.37;;;19.60;26.10;;;;;;10395796;28;20906;-75
2023/10/13 20:33:10;;;;;;;8.30;4.50;;;19.40;26.40;;;;;;10377546;28;20295;-76
2023/10/13 20:38:13;;;;;;;7.20;4.60;;;19.20;27.10;;;;;;10345883;28;20256;-76
2023/10/13 20:43:16;;;;;;;7.40;4.50;;;19.00;26.80;;;;;;10391405;28;20228;-76
2023/10/13 20:48:24;;;;;;;7.10;4.20;;;18.80;26.80;;;;;;10381717;28;20226;-76
2023/10/13 20:53:28;;;;;;;6.23;3.87;;;18.70;27.20;;;;;;10369884;28;20244;-76
2023/10/13 20:58:32;;;;;;;6.83;4.33;;;18.70;27.60;;;;;;10345265;28;20726;-75
2023/10/13 21:03:38;;;;;;;6.83;4.30;;;18.70;27.20;;;;;;10350866;28;20532;-76
2023/10/13 21:08:45;;;;;;;5.90;4.00;;;18.70;27.30;;;;;;10345789;28;20307;-76
2023/10/13 21:13:48;;;;;;;4.90;3.97;;;18.60;27.10;;;;;;10343455;28;20274;-76
2023/10/13 21:18:56;;;;;;;5.67;3.83;;;18.60;27.10;;;;;;10351795;28;20237;-76
2023/10/13 21:24:00;;;;;;;6.27;3.67;;;18.70;27.40;;;;;;10340215;28;20230;-77
2023/10/13 21:29:07;;;;;;;4.37;3.50;;;18.70;27.20;;;;;;10349679;28;20226;-76
2023/10/13 21:34:12;;;;;;;6.43;4.00;;;18.80;27.80;;;;;;10359045;28;20270;-76
2023/10/13 21:39:16;;;;;;;4.10;3.70;;;18.90;27.30;;;;;;10351206;28;20906;-75
2023/10/13 21:44:19;;;;;;;5.37;3.70;;;18.80;27.10;;;;;;10343019;28;20301;-76
2023/10/13 21:49:23;;;;;;;5.80;2.97;;;18.80;26.90;;;;;;10355621;28;20320;-76
2023/10/13 21:54:27;;;;;;;7.60;3.90;;;18.80;27.20;;;;;;10354037;28;20225;-76
2023/10/13 21:59:32;;;;;;;6.63;3.40;;;18.80;26.90;;;;;;10373384;28;20244;-76
2023/10/13 22:04:37;;;;;;;4.50;3.53;;;18.70;26.90;;;;;;10395289;28;20842;-76
2023/10/13 22:09:41;;;;;;;5.80;3.57;;;18.70;27.20;;;;;;10392152;28;20248;-76
2023/10/13 22:14:46;;;;;;;4.20;3.07;;;18.70;26.90;;;;;;10388783;28;20710;-75
2023/10/13 22:19:53;;;;;;;5.70;3.47;;;18.70;27.00;;;;;;10394741;28;20241;-76
2023/10/13 22:24:56;;;;;;;4.17;3.03;;;18.70;27.40;;;;;;10394667;28;20317;-76
2023/10/13 22:29:59;;;;;;;5.77;3.50;;;18.80;27.00;;;;;;10383765;28;20230;-77
2023/10/13 22:35:05;;;;;;;7.70;3.17;;;18.80;26.90;;;;;;10387595;28;20769;-77
2023/10/13 22:40:12;;;;;;;4.27;3.37;;;18.80;27.00;;;;;;10387765;28;20637;-77
2023/10/13 22:45:19;;;;;;;4.90;2.70;;;18.70;26.90;;;;;;10384131;28;20237;-77
2023/10/13 22:50:24;;;;;;;4.50;3.00;;;18.80;26.90;;;;;;10385079;28;20401;-77
2023/10/13 22:55:28;;;;;;;6.13;2.70;;;18.70;27.00;;;;;;10384052;28;20225;-76
2023/10/13 23:05:54;;;;;;;3.37;2.70;;;18.80;26.80;;;;;;10341365;28;20237;-76
2023/10/13 23:11:00;;;;;;;5.23;2.93;;;18.80;26.80;;;;;;10343935;28;20237;-76
2023/10/13 23:16:04;;;;;;;3.20;2.73;;;18.80;26.80;;;;;;10343630;28;20232;-76
2023/10/13 23:21:10;;;;;;;3.47;3.03;;;18.80;26.90;;;;;;10352047;28;20233;-76
2023/10/13 23:26:14;;;;;;;4.03;3.00;;;18.80;26.90;;;;;;10350056;28;20221;-76
2023/10/13 23:31:19;;;;;;;5.87;2.80;;;18.90;26.80;;;;;;10360525;28;20237;-76
2023/10/13 23:36:23;;;;;;;3.20;2.90;;;18.90;26.80;;;;;;10354223;28;20715;-75
2023/10/13 23:41:27;;;;;;;4.03;2.90;;;18.90;26.90;;;;;;10342446;28;20230;-76
2023/10/13 23:46:34;;;;;;;4.30;2.77;;;18.90;26.90;;;;;;10356502;28;20697;-76
2023/10/13 23:51:48;;;;;;;2.67;2.47;;;18.90;26.90;;;;;;10358364;28;20766;-76
2023/10/13 23:56:53;;;;;;;5.03;2.60;;;18.90;27.20;;;;;;10339684;28;20230;-76
